sensor_id;sensor_type;location;lat;lon;timestamp;pressure;altitude;pressure_sealevel;temperature;humidity
55755;BME280;41674;52.290;-1.474;2023-12-29T00:01:01;99715.05;;;5.78;97.37
55755;BME280;41674;52.290;-1.474;2023-12-29T00:03:28;99720.20;;;5.49;99.27
55755;BME280;41674;52.290;-1.474;2023-12-29T00:05:58;99718.24;;;5.49;97.94
55755;BME280;41674;52.290;-1.474;2023-12-29T00:08:27;99719.96;;;5.84;96.73
55755;BME280;41674;52.290;-1.474;2023-12-29T00:11:04;99726.86;;;6.17;98.46
55755;BME280;41674;52.290;-1.474;2023-12-29T00:13:31;99729.69;;;5.96;97.11
55755;BME280;41674;52.290;-1.474;2023-12-29T00:15:56;99731.05;;;5.81;98.46
55755;BME280;41674;52.290;-1.474;2023-12-29T00:18:25;99729.09;;;6.56;95.33
55755;BME280;41674;52.290;-1.474;2023-12-29T00:20:56;99728.41;;;6.69;94.59
55755;BME280;41674;52.290;-1.474;2023-12-29T00:23:24;99719.13;;;6.36;94.56
55755;BME280;41674;52.290;-1.474;2023-12-29T00:25:55;99716.17;;;6.50;94.86
55755;BME280;41674;52.290;-1.474;2023-12-29T00:28:23;99723.65;;;6.07;94.83
55755;BME280;41674;52.290;-1.474;2023-12-29T00:30:52;99724.23;;;6.46;94.84
55755;BME280;41674;52.290;-1.474;2023-12-29T00:33:22;99722.79;;;5.70;96.92
55755;BME280;41674;52.290;-1.474;2023-12-29T00:35:52;99718.92;;;6.25;95.80
55755;BME280;41674;52.290;-1.474;2023-12-29T00:38:27;99712.24;;;6.03;95.76
55755;BME280;41674;52.290;-1.474;2023-12-29T00:40:51;99708.51;;;6.27;94.50
55755;BME280;41674;52.290;-1.474;2023-12-29T00:43:20;99693.85;;;6.23;95.89
55755;BME280;41674;52.290;-1.474;2023-12-29T00:45:50;99687.04;;;6.10;95.37
55755;BME280;41674;52.290;-1.474;2023-12-29T00:48:20;99693.47;;;5.74;96.22
55755;BME280;41674;52.290;-1.474;2023-12-29T00:50:49;99686.86;;;5.98;96.01
55755;BME280;41674;52.290;-1.474;2023-12-29T00:53:19;99671.29;;;5.69;97.55
55755;BME280;41674;52.290;-1.474;2023-12-29T00:55:48;99662.47;;;6.02;95.95
55755;BME280;41674;52.290;-1.474;2023-12-29T00:58:18;99667.27;;;5.50;99.31
55755;BME280;41674;52.290;-1.474;2023-12-29T01:00:48;99655.61;;;5.78;98.21
55755;BME280;41674;52.290;-1.474;2023-12-29T01:03:23;99669.44;;;5.78;98.20
55755;BME280;41674;52.290;-1.474;2023-12-29T01:05:47;99688.16;;;5.48;98.92
55755;BME280;41674;52.290;-1.474;2023-12-29T01:08:17;99686.73;;;5.73;99.43
55755;BME280;41674;52.290;-1.474;2023-12-29T01:10:46;99690.03;;;5.61;100.00
55755;BME280;41674;52.290;-1.474;2023-12-29T01:13:15;99695.74;;;5.87;100.00
55755;BME280;41674;52.290;-1.474;2023-12-29T01:15:45;99695.58;;;5.36;100.00
55755;BME280;41674;52.290;-1.474;2023-12-29T01:18:15;99703.22;;;6.14;100.00
55755;BME280;41674;52.290;-1.474;2023-12-29T01:20:49;99713.75;;;5.52;100.00
55755;BME280;41674;52.290;-1.474;2023-12-29T01:23:16;99729.77;;;5.93;100.00
55755;BME280;41674;52.290;-1.474;2023-12-29T01:25:44;99706.55;;;4.92;100.00
55755;BME280;41674;52.290;-1.474;2023-12-29T01:28:14;99716.81;;;4.84;100.00
55755;BME280;41674;52.290;-1.474;2023-12-29T01:30:43;99702.70;;;4.98;100.00
55755;BME280;41674;52.290;-1.474;2023-12-29T01:33:13;99713.03;;;4.81;100.00
55755;BME280;41674;52.290;-1.474;2023-12-29T01:35:42;99689.67;;;4.53;100.00
55755;BME280;41674;52.290;-1.474;2023-12-29T01:38:12;99686.89;;;4.50;100.00
55755;BME280;41674;52.290;-1.474;2023-12-29T01:40:43;99694.58;;;4.40;100.00
55755;BME280;41674;52.290;-1.474;2023-12-29T01:43:12;99692.71;;;4.39;100.00
55755;BME280;41674;52.290;-1.474;2023-12-29T01:45:42;99692.00;;;4.71;100.00
55755;BME280;41674;52.290;-1.474;2023-12-29T01:48:10;99688.66;;;5.17;100.00
55755;BME280;41674;52.290;-1.474;2023-12-29T01:50:40;99693.90;;;4.92;100.00
55755;BME280;41674;52.290;-1.474;2023-12-29T01:53:10;99686.59;;;4.82;100.00
55755;BME280;41674;52.290;-1.474;2023-12-29T01:55:44;99688.73;;;5.24;100.00
55755;BME280;41674;52.290;-1.474;2023-12-29T01:58:09;99689.33;;;5.39;100.00
55755;BME280;41674;52.290;-1.474;2023-12-29T02:00:39;99684.82;;;5.18;100.00
55755;BME280;41674;52.290;-1.474;2023-12-29T02:03:08;99691.93;;;5.64;100.00
55755;BME280;41674;52.290;-1.474;2023-12-29T02:05:38;99698.54;;;5.38;100.00
55755;BME280;41674;52.290;-1.474;2023-12-29T02:08:07;99702.48;;;5.44;100.00
55755;BME280;41674;52.290;-1.474;2023-12-29T02:10:39;99697.60;;;5.95;100.00
55755;BME280;41674;52.290;-1.474;2023-12-29T02:13:07;99697.15;;;5.89;100.00
55755;BME280;41674;52.290;-1.474;2023-12-29T02:15:36;99700.03;;;5.30;100.00
55755;BME280;41674;52.290;-1.474;2023-12-29T02:20:36;99691.72;;;5.65;100.00
55755;BME280;41674;52.290;-1.474;2023-12-29T02:23:05;99679.79;;;5.84;100.00
55755;BME280;41674;52.290;-1.474;2023-12-29T02:25:35;99709.73;;;5.81;100.00
55755;BME280;41674;52.290;-1.474;2023-12-29T02:28:10;99718.30;;;5.73;100.00
55755;BME280;41674;52.290;-1.474;2023-12-29T02:30:43;99704.86;;;5.70;100.00
55755;BME280;41674;52.290;-1.474;2023-12-29T02:33:05;99717.71;;;5.49;100.00
55755;BME280;41674;52.290;-1.474;2023-12-29T02:35:38;99730.50;;;5.12;100.00
55755;BME280;41674;52.290;-1.474;2023-12-29T02:38:03;99712.61;;;4.91;100.00
55755;BME280;41674;52.290;-1.474;2023-12-29T02:40:36;99705.74;;;4.90;100.00
55755;BME280;41674;52.290;-1.474;2023-12-29T02:43:01;99722.84;;;4.98;100.00
55755;BME280;41674;52.290;-1.474;2023-12-29T02:45:31;99714.18;;;4.98;100.00
55755;BME280;41674;52.290;-1.474;2023-12-29T02:48:01;99713.23;;;5.29;100.00
55755;BME280;41674;52.290;-1.474;2023-12-29T02:50:35;99707.00;;;5.28;100.00
55755;BME280;41674;52.290;-1.474;2023-12-29T02:53:00;99709.72;;;4.86;100.00
55755;BME280;41674;52.290;-1.474;2023-12-29T02:55:29;99702.44;;;5.12;100.00
55755;BME280;41674;52.290;-1.474;2023-12-29T02:57:59;99708.32;;;4.81;100.00
55755;BME280;41674;52.290;-1.474;2023-12-29T03:00:29;99711.71;;;4.92;100.00
55755;BME280;41674;52.290;-1.474;2023-12-29T03:02:58;99711.01;;;5.20;100.00
55755;BME280;41674;52.290;-1.474;2023-12-29T03:05:33;99713.89;;;5.04;100.00
55755;BME280;41674;52.290;-1.474;2023-12-29T03:07:57;99713.88;;;4.99;100.00
55755;BME280;41674;52.290;-1.474;2023-12-29T03:10:27;99709.07;;;4.84;100.00
55755;BME280;41674;52.290;-1.474;2023-12-29T03:12:57;99709.66;;;4.72;100.00
55755;BME280;41674;52.290;-1.474;2023-12-29T03:15:28;99707.41;;;5.07;100.00
55755;BME280;41674;52.290;-1.474;2023-12-29T03:17:56;99708.82;;;5.14;100.00
55755;BME280;41674;52.290;-1.474;2023-12-29T03:20:26;99708.30;;;5.04;100.00
55755;BME280;41674;52.290;-1.474;2023-12-29T03:22:55;99708.11;;;5.35;100.00
55755;BME280;41674;52.290;-1.474;2023-12-29T03:25:27;99708.14;;;5.34;100.00
55755;BME280;41674;52.290;-1.474;2023-12-29T03:27:54;99714.31;;;5.31;100.00
55755;BME280;41674;52.290;-1.474;2023-12-29T03:30:24;99713.76;;;4.97;100.00
55755;BME280;41674;52.290;-1.474;2023-12-29T03:32:54;99706.83;;;5.49;100.00
55755;BME280;41674;52.290;-1.474;2023-12-29T03:35:23;99712.84;;;5.04;100.00
55755;BME280;41674;52.290;-1.474;2023-12-29T03:37:53;99704.93;;;5.03;100.00
55755;BME280;41674;52.290;-1.474;2023-12-29T03:40:23;99701.32;;;4.96;100.00
55755;BME280;41674;52.290;-1.474;2023-12-29T03:42:52;99688.58;;;5.10;100.00
55755;BME280;41674;52.290;-1.474;2023-12-29T03:45:22;99700.96;;;4.65;100.00
55755;BME280;41674;52.290;-1.474;2023-12-29T03:47:52;99696.25;;;4.96;100.00
55755;BME280;41674;52.290;-1.474;2023-12-29T03:50:21;99695.74;;;5.07;100.00
55755;BME280;41674;52.290;-1.474;2023-12-29T03:52:51;99716.16;;;4.85;100.00
55755;BME280;41674;52.290;-1.474;2023-12-29T03:55:21;99702.14;;;5.16;100.00
55755;BME280;41674;52.290;-1.474;2023-12-29T03:57:50;99700.93;;;5.28;100.00
55755;BME280;41674;52.290;-1.474;2023-12-29T04:00:20;99695.87;;;5.22;100.00
55755;BME280;41674;52.290;-1.474;2023-12-29T04:02:50;99686.63;;;5.08;100.00
55755;BME280;41674;52.290;-1.474;2023-12-29T04:05:19;99688.21;;;4.92;100.00
55755;BME280;41674;52.290;-1.474;2023-12-29T04:07:54;99689.71;;;5.37;100.00
55755;BME280;41674;52.290;-1.474;2023-12-29T04:10:18;99688.58;;;4.90;100.00
55755;BME280;41674;52.290;-1.474;2023-12-29T04:12:48;99690.28;;;4.62;100.00
55755;BME280;41674;52.290;-1.474;2023-12-29T04:15:23;99687.78;;;5.13;100.00
55755;BME280;41674;52.290;-1.474;2023-12-29T04:17:47;99680.72;;;4.69;100.00
55755;BME280;41674;52.290;-1.474;2023-12-29T04:20:17;99684.69;;;4.63;100.00
55755;BME280;41674;52.290;-1.474;2023-12-29T04:22:52;99692.56;;;4.93;100.00
55755;BME280;41674;52.290;-1.474;2023-12-29T04:25:16;99684.92;;;5.05;100.00
55755;BME280;41674;52.290;-1.474;2023-12-29T04:27:45;99683.57;;;4.79;100.00
55755;BME280;41674;52.290;-1.474;2023-12-29T04:30:16;99682.91;;;5.28;100.00
55755;BME280;41674;52.290;-1.474;2023-12-29T04:32:45;99684.46;;;4.67;100.00
55755;BME280;41674;52.290;-1.474;2023-12-29T04:35:14;99675.17;;;5.03;100.00
55755;BME280;41674;52.290;-1.474;2023-12-29T04:37:44;99684.45;;;4.65;100.00
55755;BME280;41674;52.290;-1.474;2023-12-29T04:40:14;99685.68;;;4.64;100.00
55755;BME280;41674;52.290;-1.474;2023-12-29T04:42:43;99683.74;;;4.73;100.00
55755;BME280;41674;52.290;-1.474;2023-12-29T04:45:18;99686.33;;;4.52;100.00
55755;BME280;41674;52.290;-1.474;2023-12-29T04:47:43;99690.34;;;4.74;100.00
55755;BME280;41674;52.290;-1.474;2023-12-29T04:50:13;99687.04;;;4.66;100.00
55755;BME280;41674;52.290;-1.474;2023-12-29T04:52:43;99683.20;;;4.58;100.00
55755;BME280;41674;52.290;-1.474;2023-12-29T04:55:11;99686.31;;;5.32;100.00
55755;BME280;41674;52.290;-1.474;2023-12-29T04:57:41;99683.90;;;5.45;100.00
55755;BME280;41674;52.290;-1.474;2023-12-29T05:00:16;99689.55;;;4.88;100.00
55755;BME280;41674;52.290;-1.474;2023-12-29T05:02:40;99686.80;;;5.24;100.00
55755;BME280;41674;52.290;-1.474;2023-12-29T05:05:15;99686.08;;;5.48;99.75
55755;BME280;41674;52.290;-1.474;2023-12-29T05:07:45;99688.98;;;5.17;100.00
55755;BME280;41674;52.290;-1.474;2023-12-29T05:10:09;99688.01;;;5.25;100.00
55755;BME280;41674;52.290;-1.474;2023-12-29T05:12:38;99697.46;;;5.49;100.00
55755;BME280;41674;52.290;-1.474;2023-12-29T05:15:08;99703.79;;;5.01;100.00
55755;BME280;41674;52.290;-1.474;2023-12-29T05:17:38;99711.28;;;5.11;100.00
55755;BME280;41674;52.290;-1.474;2023-12-29T05:20:09;99713.42;;;5.38;99.86
55755;BME280;41674;52.290;-1.474;2023-12-29T05:22:37;99721.43;;;5.14;100.00
55755;BME280;41674;52.290;-1.474;2023-12-29T05:27:37;99721.05;;;5.89;95.86
55755;BME280;41674;52.290;-1.474;2023-12-29T05:30:07;99728.52;;;5.16;97.69
55755;BME280;41674;52.290;-1.474;2023-12-29T05:32:36;99731.38;;;5.00;98.23
55755;BME280;41674;52.290;-1.474;2023-12-29T05:35:06;99732.34;;;5.27;97.76
55755;BME280;41674;52.290;-1.474;2023-12-29T05:37:35;99734.76;;;5.29;97.16
55755;BME280;41674;52.290;-1.474;2023-12-29T05:40:06;99735.90;;;5.17;95.91
55755;BME280;41674;52.290;-1.474;2023-12-29T05:42:36;99741.78;;;4.97;98.03
55755;BME280;41674;52.290;-1.474;2023-12-29T05:45:04;99734.38;;;5.17;98.14
55755;BME280;41674;52.290;-1.474;2023-12-29T05:47:33;99742.72;;;5.12;98.17
55755;BME280;41674;52.290;-1.474;2023-12-29T05:50:03;99740.42;;;5.16;96.80
55755;BME280;41674;52.290;-1.474;2023-12-29T05:52:34;99745.36;;;5.60;94.93
55755;BME280;41674;52.290;-1.474;2023-12-29T05:55:02;99740.57;;;5.14;96.27
55755;BME280;41674;52.290;-1.474;2023-12-29T05:57:32;99741.47;;;5.62;93.52
55755;BME280;41674;52.290;-1.474;2023-12-29T06:00:01;99740.92;;;5.23;95.84
55755;BME280;41674;52.290;-1.474;2023-12-29T06:02:31;99745.14;;;5.14;96.94
55755;BME280;41674;52.290;-1.474;2023-12-29T06:05:02;99749.61;;;4.38;100.00
55755;BME280;41674;52.290;-1.474;2023-12-29T06:07:30;99742.39;;;4.91;99.04
55755;BME280;41674;52.290;-1.474;2023-12-29T06:10:00;99741.89;;;5.07;98.32
55755;BME280;41674;52.290;-1.474;2023-12-29T06:12:29;99745.11;;;4.68;100.00
55755;BME280;41674;52.290;-1.474;2023-12-29T06:14:59;99745.43;;;4.68;98.45
55755;BME280;41674;52.290;-1.474;2023-12-29T06:17:29;99733.20;;;5.08;95.03
55755;BME280;41674;52.290;-1.474;2023-12-29T06:19:59;99736.51;;;4.69;95.89
55755;BME280;41674;52.290;-1.474;2023-12-29T06:22:28;99737.11;;;4.29;96.60
55755;BME280;41674;52.290;-1.474;2023-12-29T06:24:58;99739.45;;;4.86;94.37
55755;BME280;41674;52.290;-1.474;2023-12-29T06:27:27;99744.94;;;4.70;95.33
55755;BME280;41674;52.290;-1.474;2023-12-29T06:29:57;99744.00;;;4.96;93.83
55755;BME280;41674;52.290;-1.474;2023-12-29T06:32:31;99745.35;;;4.58;93.96
55755;BME280;41674;52.290;-1.474;2023-12-29T06:34:56;99746.63;;;5.01;94.95
55755;BME280;41674;52.290;-1.474;2023-12-29T06:37:26;99748.82;;;5.19;94.58
55755;BME280;41674;52.290;-1.474;2023-12-29T06:39:56;99752.06;;;4.79;95.12
55755;BME280;41674;52.290;-1.474;2023-12-29T06:42:25;99752.90;;;4.11;96.23
55755;BME280;41674;52.290;-1.474;2023-12-29T06:44:55;99753.08;;;5.21;95.40
55755;BME280;41674;52.290;-1.474;2023-12-29T06:47:24;99760.49;;;4.72;96.62
55755;BME280;41674;52.290;-1.474;2023-12-29T06:49:53;99766.32;;;4.04;99.47
55755;BME280;41674;52.290;-1.474;2023-12-29T06:52:23;99767.29;;;4.93;95.20
55755;BME280;41674;52.290;-1.474;2023-12-29T06:54:53;99766.77;;;5.23;95.45
55755;BME280;41674;52.290;-1.474;2023-12-29T06:57:22;99765.09;;;5.49;92.18
55755;BME280;41674;52.290;-1.474;2023-12-29T06:59:53;99767.44;;;4.96;92.09
55755;BME280;41674;52.290;-1.474;2023-12-29T07:02:22;99778.52;;;5.05;95.12
55755;BME280;41674;52.290;-1.474;2023-12-29T07:04:52;99783.55;;;5.14;96.67
55755;BME280;41674;52.290;-1.474;2023-12-29T07:07:22;99791.84;;;4.83;98.29
55755;BME280;41674;52.290;-1.474;2023-12-29T07:09:51;99790.20;;;5.07;95.05
55755;BME280;41674;52.290;-1.474;2023-12-29T07:12:22;99802.92;;;4.80;96.97
55755;BME280;41674;52.290;-1.474;2023-12-29T07:14:51;99799.33;;;4.68;95.77
55755;BME280;41674;52.290;-1.474;2023-12-29T07:17:19;99815.70;;;4.67;97.20
55755;BME280;41674;52.290;-1.474;2023-12-29T07:19:49;99804.22;;;4.37;100.00
55755;BME280;41674;52.290;-1.474;2023-12-29T07:22:18;99799.59;;;4.15;100.00
55755;BME280;41674;52.290;-1.474;2023-12-29T07:24:50;99804.12;;;4.17;100.00
55755;BME280;41674;52.290;-1.474;2023-12-29T07:27:19;99802.35;;;3.90;100.00
55755;BME280;41674;52.290;-1.474;2023-12-29T07:29:47;99802.11;;;4.38;100.00
55755;BME280;41674;52.290;-1.474;2023-12-29T07:32:17;99797.29;;;3.58;100.00
55755;BME280;41674;52.290;-1.474;2023-12-29T07:34:47;99803.55;;;3.80;100.00
55755;BME280;41674;52.290;-1.474;2023-12-29T07:37:17;99806.89;;;4.40;100.00
55755;BME280;41674;52.290;-1.474;2023-12-29T07:39:46;99804.57;;;4.33;100.00
55755;BME280;41674;52.290;-1.474;2023-12-29T07:42:16;99798.13;;;4.27;100.00
55755;BME280;41674;52.290;-1.474;2023-12-29T07:44:45;99802.02;;;4.42;100.00
55755;BME280;41674;52.290;-1.474;2023-12-29T07:47:15;99790.57;;;5.10;99.66
55755;BME280;41674;52.290;-1.474;2023-12-29T07:49:45;99793.23;;;4.09;100.00
55755;BME280;41674;52.290;-1.474;2023-12-29T07:52:14;99802.78;;;4.66;100.00
55755;BME280;41674;52.290;-1.474;2023-12-29T07:54:49;99800.46;;;4.33;100.00
55755;BME280;41674;52.290;-1.474;2023-12-29T07:59:43;99808.33;;;4.42;100.00
55755;BME280;41674;52.290;-1.474;2023-12-29T08:02:13;99807.15;;;4.46;100.00
55755;BME280;41674;52.290;-1.474;2023-12-29T08:04:42;99806.23;;;4.22;100.00
55755;BME280;41674;52.290;-1.474;2023-12-29T08:07:12;99811.86;;;4.76;99.84
55755;BME280;41674;52.290;-1.474;2023-12-29T08:09:43;99813.59;;;4.51;100.00
55755;BME280;41674;52.290;-1.474;2023-12-29T08:12:12;99820.17;;;4.66;99.11
55755;BME280;41674;52.290;-1.474;2023-12-29T08:14:46;99824.19;;;4.74;98.95
55755;BME280;41674;52.290;-1.474;2023-12-29T08:17:11;99826.27;;;4.47;100.00
55755;BME280;41674;52.290;-1.474;2023-12-29T08:19:40;99828.96;;;4.51;100.00
55755;BME280;41674;52.290;-1.474;2023-12-29T08:22:10;99825.15;;;5.43;98.86
55755;BME280;41674;52.290;-1.474;2023-12-29T08:24:40;99830.57;;;4.58;100.00
55755;BME280;41674;52.290;-1.474;2023-12-29T08:27:12;99833.66;;;4.71;100.00
55755;BME280;41674;52.290;-1.474;2023-12-29T08:29:40;99839.97;;;4.37;100.00
55755;BME280;41674;52.290;-1.474;2023-12-29T08:32:08;99842.41;;;5.13;98.07
55755;BME280;41674;52.290;-1.474;2023-12-29T08:34:40;99842.71;;;5.28;96.32
55755;BME280;41674;52.290;-1.474;2023-12-29T08:37:08;99846.69;;;5.26;95.81
55755;BME280;41674;52.290;-1.474;2023-12-29T08:39:37;99841.78;;;5.21;95.52
55755;BME280;41674;52.290;-1.474;2023-12-29T08:42:06;99838.22;;;5.15;93.47
55755;BME280;41674;52.290;-1.474;2023-12-29T08:44:36;99839.95;;;5.83;92.20
55755;BME280;41674;52.290;-1.474;2023-12-29T08:47:10;99841.12;;;6.15;90.43
55755;BME280;41674;52.290;-1.474;2023-12-29T08:49:35;99845.27;;;5.95;89.56
55755;BME280;41674;52.290;-1.474;2023-12-29T08:52:04;99853.99;;;5.33;93.04
55755;BME280;41674;52.290;-1.474;2023-12-29T08:54:33;99853.59;;;5.49;92.43
55755;BME280;41674;52.290;-1.474;2023-12-29T08:57:03;99852.49;;;5.64;91.31
55755;BME280;41674;52.290;-1.474;2023-12-29T08:59:32;99855.76;;;6.06;88.64
55755;BME280;41674;52.290;-1.474;2023-12-29T09:02:02;99852.45;;;5.94;87.98
55755;BME280;41674;52.290;-1.474;2023-12-29T09:04:32;99859.52;;;5.47;91.07
55755;BME280;41674;52.290;-1.474;2023-12-29T09:07:03;99853.41;;;6.03;88.66
55755;BME280;41674;52.290;-1.474;2023-12-29T09:09:33;99858.13;;;6.10;86.82
55755;BME280;41674;52.290;-1.474;2023-12-29T09:12:00;99857.58;;;6.36;86.63
55755;BME280;41674;52.290;-1.474;2023-12-29T09:14:35;99850.41;;;6.41;84.12
55755;BME280;41674;52.290;-1.474;2023-12-29T09:17:00;99849.05;;;7.00;81.96
55755;BME280;41674;52.290;-1.474;2023-12-29T09:19:29;99857.93;;;5.84;85.46
55755;BME280;41674;52.290;-1.474;2023-12-29T09:21:59;99864.46;;;6.06;86.01
55755;BME280;41674;52.290;-1.474;2023-12-29T09:24:29;99870.10;;;5.76;86.24
55755;BME280;41674;52.290;-1.474;2023-12-29T09:26:58;99873.53;;;5.40;89.15
55755;BME280;41674;52.290;-1.474;2023-12-29T09:29:28;99873.69;;;5.79;87.19
55755;BME280;41674;52.290;-1.474;2023-12-29T09:31:58;99866.63;;;5.76;88.15
55755;BME280;41674;52.290;-1.474;2023-12-29T09:34:27;99859.41;;;5.38;91.63
55755;BME280;41674;52.290;-1.474;2023-12-29T09:36:58;99854.29;;;5.16;93.31
55755;BME280;41674;52.290;-1.474;2023-12-29T09:39:26;99856.49;;;4.99;94.25
55755;BME280;41674;52.290;-1.474;2023-12-29T09:42:01;99864.13;;;5.01;95.40
55755;BME280;41674;52.290;-1.474;2023-12-29T09:47:00;99863.25;;;5.86;92.43
55755;BME280;41674;52.290;-1.474;2023-12-29T09:51:55;99876.77;;;5.48;92.33
55755;BME280;41674;52.290;-1.474;2023-12-29T09:54:24;99867.46;;;5.76;91.63
55755;BME280;41674;52.290;-1.474;2023-12-29T09:56:54;99874.97;;;5.51;94.40
55755;BME280;41674;52.290;-1.474;2023-12-29T09:59:24;99869.97;;;6.22;92.73
55755;BME280;41674;52.290;-1.474;2023-12-29T10:02:04;99867.43;;;5.88;92.42
55755;BME280;41674;52.290;-1.474;2023-12-29T10:06:54;99854.87;;;6.29;89.94
55755;BME280;41674;52.290;-1.474;2023-12-29T10:09:28;99844.53;;;6.72;87.77
55755;BME280;41674;52.290;-1.474;2023-12-29T10:11:52;99843.70;;;6.36;89.97
55755;BME280;41674;52.290;-1.474;2023-12-29T10:16:55;99849.51;;;6.57;89.99
55755;BME280;41674;52.290;-1.474;2023-12-29T10:19:30;99856.79;;;5.88;91.93
55755;BME280;41674;52.290;-1.474;2023-12-29T10:21:55;99862.24;;;6.67;89.61
55755;BME280;41674;52.290;-1.474;2023-12-29T10:24:21;99863.03;;;6.67;89.94
55755;BME280;41674;52.290;-1.474;2023-12-29T10:26:49;99874.55;;;6.00;91.57
55755;BME280;41674;52.290;-1.474;2023-12-29T10:29:19;99883.83;;;6.66;89.78
55755;BME280;41674;52.290;-1.474;2023-12-29T10:31:48;99892.04;;;6.86;89.21
55755;BME280;41674;52.290;-1.474;2023-12-29T10:34:18;99903.49;;;6.06;93.49
55755;BME280;41674;52.290;-1.474;2023-12-29T10:36:47;99897.18;;;6.01;96.33
55755;BME280;41674;52.290;-1.474;2023-12-29T10:39:17;99902.17;;;5.96;95.54
55755;BME280;41674;52.290;-1.474;2023-12-29T10:44:17;99911.38;;;5.74;97.47
55755;BME280;41674;52.290;-1.474;2023-12-29T10:46:46;99908.22;;;5.97;96.41
55755;BME280;41674;52.290;-1.474;2023-12-29T10:49:18;99899.94;;;6.14;96.15
55755;BME280;41674;52.290;-1.474;2023-12-29T10:51:45;99893.44;;;5.54;96.17
55755;BME280;41674;52.290;-1.474;2023-12-29T10:54:19;99895.33;;;5.56;96.91
55755;BME280;41674;52.290;-1.474;2023-12-29T10:56:44;99890.78;;;5.89;96.80
55755;BME280;41674;52.290;-1.474;2023-12-29T10:59:15;99895.47;;;5.89;95.82
55755;BME280;41674;52.290;-1.474;2023-12-29T11:01:43;99893.17;;;6.07;93.54
55755;BME280;41674;52.290;-1.474;2023-12-29T11:04:13;99886.12;;;6.22;93.80
55755;BME280;41674;52.290;-1.474;2023-12-29T11:06:48;99867.08;;;6.52;90.08
55755;BME280;41674;52.290;-1.474;2023-12-29T11:09:13;99862.03;;;6.44;88.28
55755;BME280;41674;52.290;-1.474;2023-12-29T11:11:42;99859.42;;;6.01;90.74
55755;BME280;41674;52.290;-1.474;2023-12-29T11:14:12;99853.29;;;6.24;92.31
55755;BME280;41674;52.290;-1.474;2023-12-29T11:16:41;99857.49;;;6.25;91.01
55755;BME280;41674;52.290;-1.474;2023-12-29T11:19:16;99862.36;;;5.54;94.35
55755;BME280;41674;52.290;-1.474;2023-12-29T11:21:42;99871.77;;;5.87;93.88
55755;BME280;41674;52.290;-1.474;2023-12-29T11:24:12;99879.03;;;5.75;93.06
55755;BME280;41674;52.290;-1.474;2023-12-29T11:26:40;99888.81;;;5.50;95.75
55755;BME280;41674;52.290;-1.474;2023-12-29T11:29:10;99889.84;;;5.13;96.79
55755;BME280;41674;52.290;-1.474;2023-12-29T11:31:39;99896.13;;;5.84;93.88
55755;BME280;41674;52.290;-1.474;2023-12-29T11:34:12;99890.66;;;5.44;94.18
55755;BME280;41674;52.290;-1.474;2023-12-29T11:36:43;99895.19;;;5.69;94.16
55755;BME280;41674;52.290;-1.474;2023-12-29T11:39:19;99886.52;;;5.40;94.74
55755;BME280;41674;52.290;-1.474;2023-12-29T11:41:47;99899.79;;;5.39;94.22
55755;BME280;41674;52.290;-1.474;2023-12-29T11:44:08;99893.86;;;5.50;93.71
55755;BME280;41674;52.290;-1.474;2023-12-29T11:46:39;99894.93;;;5.83;93.97
55755;BME280;41674;52.290;-1.474;2023-12-29T11:49:06;99897.74;;;5.62;92.83
55755;BME280;41674;52.290;-1.474;2023-12-29T11:51:42;99900.31;;;5.81;92.90
55755;BME280;41674;52.290;-1.474;2023-12-29T11:54:06;99900.21;;;5.79;92.20
55755;BME280;41674;52.290;-1.474;2023-12-29T11:56:36;99897.15;;;5.97;92.21
55755;BME280;41674;52.290;-1.474;2023-12-29T11:59:15;99897.30;;;5.57;92.17
55755;BME280;41674;52.290;-1.474;2023-12-29T12:01:34;99893.57;;;6.14;90.24
55755;BME280;41674;52.290;-1.474;2023-12-29T12:04:04;99900.52;;;6.11;91.46
55755;BME280;41674;52.290;-1.474;2023-12-29T12:06:38;99891.55;;;6.78;88.88
55755;BME280;41674;52.290;-1.474;2023-12-29T12:09:17;99892.23;;;5.77;93.43
55755;BME280;41674;52.290;-1.474;2023-12-29T12:11:41;99884.35;;;6.69;93.43
55755;BME280;41674;52.290;-1.474;2023-12-29T12:14:02;99886.05;;;6.00;96.56
55755;BME280;41674;52.290;-1.474;2023-12-29T12:16:47;99881.53;;;6.46;94.16
55755;BME280;41674;52.290;-1.474;2023-12-29T12:19:01;99889.59;;;6.83;91.51
55755;BME280;41674;52.290;-1.474;2023-12-29T12:21:31;99886.30;;;6.50;94.08
55755;BME280;41674;52.290;-1.474;2023-12-29T12:24:00;99885.68;;;7.00;90.63
55755;BME280;41674;52.290;-1.474;2023-12-29T12:26:34;99880.41;;;7.35;87.85
55755;BME280;41674;52.290;-1.474;2023-12-29T12:28:59;99865.42;;;6.74;89.16
55755;BME280;41674;52.290;-1.474;2023-12-29T12:31:27;99857.67;;;7.11;87.04
55755;BME280;41674;52.290;-1.474;2023-12-29T12:33:57;99855.02;;;6.97;86.68
55755;BME280;41674;52.290;-1.474;2023-12-29T12:36:27;99852.28;;;7.39;85.26
55755;BME280;41674;52.290;-1.474;2023-12-29T12:39:02;99850.81;;;7.57;85.77
55755;BME280;41674;52.290;-1.474;2023-12-29T12:41:27;99859.55;;;7.46;84.43
55755;BME280;41674;52.290;-1.474;2023-12-29T12:44:05;99864.19;;;8.00;83.79
55755;BME280;41674;52.290;-1.474;2023-12-29T12:46:25;99887.19;;;7.23;85.29
55755;BME280;41674;52.290;-1.474;2023-12-29T12:48:54;99876.78;;;6.63;89.68
55755;BME280;41674;52.290;-1.474;2023-12-29T12:51:24;99883.89;;;7.25;88.00
55755;BME280;41674;52.290;-1.474;2023-12-29T12:53:54;99877.10;;;6.86;89.84
55755;BME280;41674;52.290;-1.474;2023-12-29T12:56:23;99866.63;;;7.33;88.07
55755;BME280;41674;52.290;-1.474;2023-12-29T12:58:55;99866.01;;;6.80;90.28
55755;BME280;41674;52.290;-1.474;2023-12-29T13:01:22;99863.71;;;6.80;90.40
55755;BME280;41674;52.290;-1.474;2023-12-29T13:03:52;99866.94;;;6.70;91.81
55755;BME280;41674;52.290;-1.474;2023-12-29T13:06:21;99859.23;;;6.98;89.75
55755;BME280;41674;52.290;-1.474;2023-12-29T13:08:51;99864.65;;;6.89;88.22
55755;BME280;41674;52.290;-1.474;2023-12-29T13:11:21;99865.55;;;5.92;90.81
55755;BME280;41674;52.290;-1.474;2023-12-29T13:13:50;99869.52;;;6.28;90.80
55755;BME280;41674;52.290;-1.474;2023-12-29T13:16:28;99871.13;;;6.32;91.07
55755;BME280;41674;52.290;-1.474;2023-12-29T13:18:49;99876.64;;;6.10;91.99
55755;BME280;41674;52.290;-1.474;2023-12-29T13:21:19;99877.81;;;5.94;93.48
55755;BME280;41674;52.290;-1.474;2023-12-29T13:23:49;99875.91;;;6.18;92.28
55755;BME280;41674;52.290;-1.474;2023-12-29T13:26:18;99884.91;;;5.84;97.34